sensor_id;sensor_type;location;lat;lon;timestamp;P1;durP1;ratioP1;P2;durP2;ratioP2
43150;SDS011;28755;51.478;5.702;2023-03-03T00:01:04;45.40;;;24.02;;
43150;SDS011;28755;51.478;5.702;2023-03-03T00:03:30;45.42;;;23.83;;
43150;SDS011;28755;51.478;5.702;2023-03-03T00:05:56;41.45;;;22.85;;
43150;SDS011;28755;51.478;5.702;2023-03-03T00:08:22;42.30;;;23.27;;
43150;SDS011;28755;51.478;5.702;2023-03-03T00:10:48;44.22;;;23.73;;
43150;SDS011;28755;51.478;5.702;2023-03-03T00:13:15;43.63;;;24.50;;
43150;SDS011;28755;51.478;5.702;2023-03-03T00:15:42;46.22;;;24.98;;
43150;SDS011;28755;51.478;5.702;2023-03-03T00:18:16;48.42;;;25.48;;
43150;SDS011;28755;51.478;5.702;2023-03-03T00:20:59;44.53;;;25.17;;
43150;SDS011;28755;51.478;5.702;2023-03-03T00:23:30;47.05;;;25.05;;
43150;SDS011;28755;51.478;5.702;2023-03-03T00:25:59;50.28;;;25.45;;
43150;SDS011;28755;51.478;5.702;2023-03-03T00:30:55;51.25;;;25.85;;
43150;SDS011;28755;51.478;5.702;2023-03-03T00:35:51;50.00;;;26.27;;
43150;SDS011;28755;51.478;5.702;2023-03-03T00:38:17;49.65;;;25.20;;
43150;SDS011;28755;51.478;5.702;2023-03-03T00:40:43;49.33;;;25.52;;
43150;SDS011;28755;51.478;5.702;2023-03-03T00:49:21;48.38;;;25.75;;
43150;SDS011;28755;51.478;5.702;2023-03-03T00:51:06;46.88;;;24.38;;
43150;SDS011;28755;51.478;5.702;2023-03-03T00:53:46;48.65;;;25.00;;
43150;SDS011;28755;51.478;5.702;2023-03-03T00:56:12;48.50;;;25.65;;
43150;SDS011;28755;51.478;5.702;2023-03-03T00:58:39;45.17;;;25.33;;
43150;SDS011;28755;51.478;5.702;2023-03-03T01:01:05;45.33;;;24.95;;
43150;SDS011;28755;51.478;5.702;2023-03-03T01:03:30;46.95;;;25.05;;
43150;SDS011;28755;51.478;5.702;2023-03-03T01:05:56;50.53;;;25.60;;
43150;SDS011;28755;51.478;5.702;2023-03-03T01:08:22;48.40;;;24.40;;
43150;SDS011;28755;51.478;5.702;2023-03-03T01:10:49;47.85;;;23.80;;
43150;SDS011;28755;51.478;5.702;2023-03-03T01:13:17;48.45;;;24.00;;
43150;SDS011;28755;51.478;5.702;2023-03-03T01:15:44;50.00;;;25.70;;
43150;SDS011;28755;51.478;5.702;2023-03-03T01:18:10;53.38;;;25.45;;
43150;SDS011;28755;51.478;5.702;2023-03-03T01:20:37;54.53;;;27.35;;
43150;SDS011;28755;51.478;5.702;2023-03-03T01:23:03;55.00;;;27.33;;
43150;SDS011;28755;51.478;5.702;2023-03-03T01:25:29;49.08;;;25.58;;
43150;SDS011;28755;51.478;5.702;2023-03-03T01:27:55;48.47;;;25.10;;
43150;SDS011;28755;51.478;5.702;2023-03-03T01:30:21;53.22;;;26.15;;
43150;SDS011;28755;51.478;5.702;2023-03-03T01:32:47;54.78;;;26.25;;
43150;SDS011;28755;51.478;5.702;2023-03-03T01:35:13;51.08;;;25.33;;
43150;SDS011;28755;51.478;5.702;2023-03-03T01:37:39;52.92;;;26.00;;
43150;SDS011;28755;51.478;5.702;2023-03-03T01:40:05;52.00;;;25.92;;
43150;SDS011;28755;51.478;5.702;2023-03-03T01:42:32;55.47;;;26.35;;
43150;SDS011;28755;51.478;5.702;2023-03-03T01:47:44;52.25;;;26.23;;
43150;SDS011;28755;51.478;5.702;2023-03-03T01:50:15;56.03;;;27.25;;
43150;SDS011;28755;51.478;5.702;2023-03-03T01:53:06;56.38;;;26.95;;
43150;SDS011;28755;51.478;5.702;2023-03-03T01:55:38;54.08;;;26.52;;
43150;SDS011;28755;51.478;5.702;2023-03-03T01:58:06;53.90;;;26.95;;
43150;SDS011;28755;51.478;5.702;2023-03-03T02:00:37;52.20;;;26.35;;
43150;SDS011;28755;51.478;5.702;2023-03-03T02:03:05;55.00;;;26.58;;
43150;SDS011;28755;51.478;5.702;2023-03-03T02:05:31;52.95;;;25.23;;
43150;SDS011;28755;51.478;5.702;2023-03-03T02:07:57;51.95;;;25.98;;
43150;SDS011;28755;51.478;5.702;2023-03-03T02:10:23;53.50;;;25.60;;
43150;SDS011;28755;51.478;5.702;2023-03-03T02:12:53;51.85;;;26.77;;
43150;SDS011;28755;51.478;5.702;2023-03-03T02:17:51;48.63;;;25.10;;
43150;SDS011;28755;51.478;5.702;2023-03-03T02:20:37;52.13;;;25.77;;
43150;SDS011;28755;51.478;5.702;2023-03-03T02:23:11;47.60;;;24.50;;
43150;SDS011;28755;51.478;5.702;2023-03-03T02:28:19;56.97;;;26.13;;
43150;SDS011;28755;51.478;5.702;2023-03-03T02:30:46;56.65;;;25.48;;
43150;SDS011;28755;51.478;5.702;2023-03-03T02:33:11;52.30;;;26.20;;
43150;SDS011;28755;51.478;5.702;2023-03-03T02:35:38;58.22;;;26.85;;
43150;SDS011;28755;51.478;5.702;2023-03-03T02:38:10;57.38;;;26.50;;
43150;SDS011;28755;51.478;5.702;2023-03-03T02:40:39;51.33;;;24.77;;
43150;SDS011;28755;51.478;5.702;2023-03-03T02:43:11;56.90;;;27.42;;
43150;SDS011;28755;51.478;5.702;2023-03-03T02:45:43;52.83;;;25.65;;
43150;SDS011;28755;51.478;5.702;2023-03-03T02:48:09;48.38;;;25.25;;
43150;SDS011;28755;51.478;5.702;2023-03-03T02:50:35;54.15;;;27.48;;
43150;SDS011;28755;51.478;5.702;2023-03-03T02:53:01;55.83;;;25.63;;
43150;SDS011;28755;51.478;5.702;2023-03-03T02:55:27;52.25;;;25.58;;
43150;SDS011;28755;51.478;5.702;2023-03-03T02:57:52;60.28;;;26.30;;
43150;SDS011;28755;51.478;5.702;2023-03-03T03:00:18;55.55;;;25.88;;
43150;SDS011;28755;51.478;5.702;2023-03-03T03:02:45;54.15;;;25.40;;
43150;SDS011;28755;51.478;5.702;2023-03-03T03:05:11;52.78;;;25.20;;
43150;SDS011;28755;51.478;5.702;2023-03-03T03:07:36;58.95;;;25.83;;
43150;SDS011;28755;51.478;5.702;2023-03-03T03:10:02;57.05;;;26.85;;
43150;SDS011;28755;51.478;5.702;2023-03-03T03:12:28;59.33;;;27.20;;
43150;SDS011;28755;51.478;5.702;2023-03-03T03:14:54;56.95;;;26.63;;
43150;SDS011;28755;51.478;5.702;2023-03-03T03:17:19;56.58;;;26.77;;
43150;SDS011;28755;51.478;5.702;2023-03-03T03:19:45;58.83;;;26.63;;
43150;SDS011;28755;51.478;5.702;2023-03-03T03:22:10;54.55;;;26.15;;
43150;SDS011;28755;51.478;5.702;2023-03-03T03:24:36;57.92;;;27.63;;
43150;SDS011;28755;51.478;5.702;2023-03-03T03:27:01;52.25;;;26.05;;
43150;SDS011;28755;51.478;5.702;2023-03-03T03:29:27;58.05;;;26.98;;
43150;SDS011;28755;51.478;5.702;2023-03-03T03:31:52;59.97;;;26.58;;
43150;SDS011;28755;51.478;5.702;2023-03-03T03:34:18;53.95;;;25.92;;
43150;SDS011;28755;51.478;5.702;2023-03-03T03:36:44;58.45;;;27.02;;
43150;SDS011;28755;51.478;5.702;2023-03-03T03:39:10;56.30;;;26.23;;
43150;SDS011;28755;51.478;5.702;2023-03-03T03:41:36;56.25;;;26.42;;
43150;SDS011;28755;51.478;5.702;2023-03-03T03:44:02;55.83;;;26.77;;
43150;SDS011;28755;51.478;5.702;2023-03-03T03:46:28;62.50;;;27.25;;
43150;SDS011;28755;51.478;5.702;2023-03-03T03:48:53;66.53;;;27.40;;
43150;SDS011;28755;51.478;5.702;2023-03-03T03:51:19;58.13;;;27.52;;
43150;SDS011;28755;51.478;5.702;2023-03-03T03:53:44;57.30;;;27.35;;
43150;SDS011;28755;51.478;5.702;2023-03-03T03:56:10;54.15;;;26.48;;
43150;SDS011;28755;51.478;5.702;2023-03-03T03:58:35;61.60;;;29.33;;
43150;SDS011;28755;51.478;5.702;2023-03-03T04:01:02;61.30;;;29.65;;
43150;SDS011;28755;51.478;5.702;2023-03-03T04:03:29;57.10;;;28.00;;
43150;SDS011;28755;51.478;5.702;2023-03-03T04:05:55;55.30;;;26.42;;
43150;SDS011;28755;51.478;5.702;2023-03-03T04:08:21;54.20;;;26.85;;
43150;SDS011;28755;51.478;5.702;2023-03-03T04:10:46;53.17;;;26.75;;
43150;SDS011;28755;51.478;5.702;2023-03-03T04:13:12;54.88;;;26.75;;
43150;SDS011;28755;51.478;5.702;2023-03-03T04:15:37;52.03;;;26.98;;
43150;SDS011;28755;51.478;5.702;2023-03-03T04:18:03;52.30;;;27.15;;
43150;SDS011;28755;51.478;5.702;2023-03-03T04:20:29;52.22;;;25.90;;
43150;SDS011;28755;51.478;5.702;2023-03-03T04:22:54;56.60;;;26.90;;
43150;SDS011;28755;51.478;5.702;2023-03-03T04:25:21;55.97;;;26.15;;
43150;SDS011;28755;51.478;5.702;2023-03-03T04:27:47;53.88;;;26.65;;
43150;SDS011;28755;51.478;5.702;2023-03-03T04:30:13;51.85;;;26.02;;
43150;SDS011;28755;51.478;5.702;2023-03-03T04:32:39;53.67;;;25.67;;
43150;SDS011;28755;51.478;5.702;2023-03-03T04:35:05;52.10;;;26.63;;
43150;SDS011;28755;51.478;5.702;2023-03-03T04:37:31;51.75;;;26.85;;
43150;SDS011;28755;51.478;5.702;2023-03-03T04:39:57;49.63;;;26.05;;
43150;SDS011;28755;51.478;5.702;2023-03-03T04:42:23;56.15;;;26.35;;
43150;SDS011;28755;51.478;5.702;2023-03-03T04:44:48;56.75;;;27.10;;
43150;SDS011;28755;51.478;5.702;2023-03-03T04:47:14;61.22;;;27.23;;
43150;SDS011;28755;51.478;5.702;2023-03-03T04:49:40;56.45;;;27.38;;
43150;SDS011;28755;51.478;5.702;2023-03-03T04:52:05;52.10;;;27.17;;
43150;SDS011;28755;51.478;5.702;2023-03-03T04:54:31;55.63;;;28.08;;
43150;SDS011;28755;51.478;5.702;2023-03-03T04:56:56;53.42;;;26.33;;
43150;SDS011;28755;51.478;5.702;2023-03-03T04:59:22;55.80;;;27.48;;
43150;SDS011;28755;51.478;5.702;2023-03-03T05:01:48;51.55;;;26.33;;
43150;SDS011;28755;51.478;5.702;2023-03-03T05:04:14;51.67;;;27.05;;
43150;SDS011;28755;51.478;5.702;2023-03-03T05:06:40;51.08;;;25.90;;
43150;SDS011;28755;51.478;5.702;2023-03-03T05:09:06;51.60;;;26.20;;
43150;SDS011;28755;51.478;5.702;2023-03-03T05:11:31;55.92;;;26.85;;
43150;SDS011;28755;51.478;5.702;2023-03-03T05:13:57;53.05;;;25.77;;
43150;SDS011;28755;51.478;5.702;2023-03-03T05:16:23;54.53;;;26.13;;
43150;SDS011;28755;51.478;5.702;2023-03-03T05:18:48;51.50;;;25.75;;
43150;SDS011;28755;51.478;5.702;2023-03-03T05:21:14;47.83;;;23.95;;
43150;SDS011;28755;51.478;5.702;2023-03-03T05:23:39;45.13;;;22.48;;
43150;SDS011;28755;51.478;5.702;2023-03-03T05:26:05;45.67;;;22.08;;
43150;SDS011;28755;51.478;5.702;2023-03-03T05:28:31;53.05;;;23.27;;
43150;SDS011;28755;51.478;5.702;2023-03-03T05:30:57;51.92;;;25.13;;
43150;SDS011;28755;51.478;5.702;2023-03-03T05:33:22;48.75;;;25.10;;
43150;SDS011;28755;51.478;5.702;2023-03-03T05:35:52;50.15;;;23.95;;
43150;SDS011;28755;51.478;5.702;2023-03-03T05:38:18;55.60;;;26.63;;
43150;SDS011;28755;51.478;5.702;2023-03-03T05:40:43;58.28;;;24.48;;
43150;SDS011;28755;51.478;5.702;2023-03-03T05:43:10;53.90;;;25.80;;
43150;SDS011;28755;51.478;5.702;2023-03-03T05:45:36;52.20;;;24.80;;
43150;SDS011;28755;51.478;5.702;2023-03-03T05:48:01;53.95;;;25.52;;
43150;SDS011;28755;51.478;5.702;2023-03-03T05:50:28;49.25;;;24.10;;
43150;SDS011;28755;51.478;5.702;2023-03-03T05:52:55;51.55;;;23.48;;
43150;SDS011;28755;51.478;5.702;2023-03-03T05:55:20;49.33;;;23.90;;
43150;SDS011;28755;51.478;5.702;2023-03-03T05:57:46;48.75;;;23.70;;
43150;SDS011;28755;51.478;5.702;2023-03-03T06:00:12;47.70;;;23.77;;
43150;SDS011;28755;51.478;5.702;2023-03-03T06:02:39;42.90;;;22.38;;
43150;SDS011;28755;51.478;5.702;2023-03-03T06:05:05;43.58;;;21.90;;
43150;SDS011;28755;51.478;5.702;2023-03-03T06:07:32;46.95;;;23.13;;
43150;SDS011;28755;51.478;5.702;2023-03-03T06:09:57;44.20;;;22.75;;
43150;SDS011;28755;51.478;5.702;2023-03-03T06:12:23;46.78;;;22.63;;
43150;SDS011;28755;51.478;5.702;2023-03-03T06:14:49;47.03;;;24.52;;
43150;SDS011;28755;51.478;5.702;2023-03-03T06:17:14;46.92;;;23.77;;
43150;SDS011;28755;51.478;5.702;2023-03-03T06:19:40;50.10;;;23.55;;
43150;SDS011;28755;51.478;5.702;2023-03-03T06:22:06;43.20;;;22.75;;
43150;SDS011;28755;51.478;5.702;2023-03-03T06:24:31;41.80;;;23.27;;
43150;SDS011;28755;51.478;5.702;2023-03-03T06:26:57;45.20;;;22.85;;
43150;SDS011;28755;51.478;5.702;2023-03-03T06:29:23;42.88;;;21.80;;
43150;SDS011;28755;51.478;5.702;2023-03-03T06:31:49;43.60;;;22.23;;
43150;SDS011;28755;51.478;5.702;2023-03-03T06:34:15;41.70;;;20.13;;
43150;SDS011;28755;51.478;5.702;2023-03-03T06:36:40;39.92;;;20.23;;
43150;SDS011;28755;51.478;5.702;2023-03-03T06:39:06;37.97;;;20.10;;
43150;SDS011;28755;51.478;5.702;2023-03-03T06:41:31;46.25;;;22.50;;
43150;SDS011;28755;51.478;5.702;2023-03-03T06:43:57;38.75;;;19.50;;
43150;SDS011;28755;51.478;5.702;2023-03-03T06:46:24;39.42;;;21.20;;
43150;SDS011;28755;51.478;5.702;2023-03-03T06:48:50;40.00;;;20.63;;
43150;SDS011;28755;51.478;5.702;2023-03-03T06:51:38;38.35;;;20.00;;
43150;SDS011;28755;51.478;5.702;2023-03-03T06:54:10;42.17;;;20.35;;
43150;SDS011;28755;51.478;5.702;2023-03-03T06:56:37;46.28;;;21.58;;
43150;SDS011;28755;51.478;5.702;2023-03-03T06:59:16;38.15;;;20.60;;
43150;SDS011;28755;51.478;5.702;2023-03-03T07:01:44;39.15;;;20.98;;
43150;SDS011;28755;51.478;5.702;2023-03-03T07:04:16;40.85;;;20.45;;
43150;SDS011;28755;51.478;5.702;2023-03-03T07:06:59;38.67;;;19.77;;
43150;SDS011;28755;51.478;5.702;2023-03-03T07:09:32;43.65;;;21.00;;
43150;SDS011;28755;51.478;5.702;2023-03-03T07:12:01;40.63;;;20.27;;
43150;SDS011;28755;51.478;5.702;2023-03-03T07:14:34;37.03;;;19.77;;
43150;SDS011;28755;51.478;5.702;2023-03-03T07:17:09;37.78;;;19.00;;
43150;SDS011;28755;51.478;5.702;2023-03-03T07:19:40;36.15;;;18.45;;
43150;SDS011;28755;51.478;5.702;2023-03-03T07:22:11;37.60;;;19.50;;
43150;SDS011;28755;51.478;5.702;2023-03-03T07:24:43;36.20;;;18.17;;
43150;SDS011;28755;51.478;5.702;2023-03-03T07:27:11;41.22;;;20.90;;
43150;SDS011;28755;51.478;5.702;2023-03-03T07:29:40;35.60;;;19.48;;
43150;SDS011;28755;51.478;5.702;2023-03-03T07:32:40;41.13;;;20.65;;
43150;SDS011;28755;51.478;5.702;2023-03-03T07:35:12;38.65;;;19.58;;
43150;SDS011;28755;51.478;5.702;2023-03-03T07:38:19;38.97;;;19.95;;
43150;SDS011;28755;51.478;5.702;2023-03-03T07:40:56;35.92;;;18.75;;
43150;SDS011;28755;51.478;5.702;2023-03-03T07:43:40;35.72;;;19.30;;
43150;SDS011;28755;51.478;5.702;2023-03-03T07:48:52;35.38;;;18.77;;
43150;SDS011;28755;51.478;5.702;2023-03-03T07:53:52;35.63;;;19.13;;
43150;SDS011;28755;51.478;5.702;2023-03-03T07:56:38;39.05;;;20.20;;
43150;SDS011;28755;51.478;5.702;2023-03-03T07:59:19;38.30;;;19.17;;
43150;SDS011;28755;51.478;5.702;2023-03-03T08:01:50;36.83;;;19.02;;
43150;SDS011;28755;51.478;5.702;2023-03-03T08:06:48;38.33;;;20.40;;
43150;SDS011;28755;51.478;5.702;2023-03-03T08:12:17;38.25;;;19.38;;
43150;SDS011;28755;51.478;5.702;2023-03-03T08:14:48;41.88;;;20.30;;
43150;SDS011;28755;51.478;5.702;2023-03-03T08:17:18;39.85;;;21.00;;
43150;SDS011;28755;51.478;5.702;2023-03-03T08:19:46;39.90;;;20.23;;
43150;SDS011;28755;51.478;5.702;2023-03-03T08:22:32;38.15;;;20.13;;
43150;SDS011;28755;51.478;5.702;2023-03-03T08:25:01;37.40;;;19.97;;
43150;SDS011;28755;51.478;5.702;2023-03-03T08:27:27;38.83;;;20.35;;
43150;SDS011;28755;51.478;5.702;2023-03-03T08:29:53;40.78;;;21.10;;
43150;SDS011;28755;51.478;5.702;2023-03-03T08:32:18;37.58;;;20.63;;
43150;SDS011;28755;51.478;5.702;2023-03-03T08:34:44;40.38;;;20.95;;
43150;SDS011;28755;51.478;5.702;2023-03-03T08:37:09;40.72;;;20.85;;
43150;SDS011;28755;51.478;5.702;2023-03-03T08:39:35;39.55;;;20.90;;
43150;SDS011;28755;51.478;5.702;2023-03-03T08:42:01;35.22;;;19.10;;
43150;SDS011;28755;51.478;5.702;2023-03-03T08:44:26;37.08;;;19.50;;
43150;SDS011;28755;51.478;5.702;2023-03-03T08:46:52;37.40;;;20.73;;
43150;SDS011;28755;51.478;5.702;2023-03-03T08:49:17;33.65;;;19.10;;
43150;SDS011;28755;51.478;5.702;2023-03-03T08:51:43;33.05;;;19.33;;
43150;SDS011;28755;51.478;5.702;2023-03-03T08:54:09;38.15;;;20.02;;
43150;SDS011;28755;51.478;5.702;2023-03-03T08:56:34;36.10;;;19.42;;
43150;SDS011;28755;51.478;5.702;2023-03-03T08:59:00;42.03;;;19.92;;
43150;SDS011;28755;51.478;5.702;2023-03-03T09:01:26;34.00;;;19.15;;
43150;SDS011;28755;51.478;5.702;2023-03-03T09:03:51;33.85;;;18.58;;
43150;SDS011;28755;51.478;5.702;2023-03-03T09:06:17;33.53;;;18.48;;
43150;SDS011;28755;51.478;5.702;2023-03-03T09:08:42;31.95;;;18.02;;
43150;SDS011;28755;51.478;5.702;2023-03-03T09:11:09;33.42;;;17.98;;
43150;SDS011;28755;51.478;5.702;2023-03-03T09:13:36;34.42;;;18.40;;
43150;SDS011;28755;51.478;5.702;2023-03-03T09:16:02;35.55;;;18.35;;
43150;SDS011;28755;51.478;5.702;2023-03-03T09:18:37;32.60;;;18.30;;
43150;SDS011;28755;51.478;5.702;2023-03-03T09:21:16;29.63;;;16.10;;
43150;SDS011;28755;51.478;5.702;2023-03-03T09:23:59;29.58;;;16.17;;
43150;SDS011;28755;51.478;5.702;2023-03-03T09:31:54;33.88;;;18.02;;
43150;SDS011;28755;51.478;5.702;2023-03-03T09:34:29;36.55;;;20.95;;
43150;SDS011;28755;51.478;5.702;2023-03-03T09:39:47;32.33;;;18.33;;
43150;SDS011;28755;51.478;5.702;2023-03-03T09:50:54;35.25;;;18.35;;
43150;SDS011;28755;51.478;5.702;2023-03-03T09:56:27;30.45;;;16.65;;
43150;SDS011;28755;51.478;5.702;2023-03-03T09:59:02;31.55;;;17.67;;
43150;SDS011;28755;51.478;5.702;2023-03-03T10:04:43;28.15;;;16.20;;
43150;SDS011;28755;51.478;5.702;2023-03-03T10:07:35;30.38;;;16.40;;
43150;SDS011;28755;51.478;5.702;2023-03-03T10:10:42;28.20;;;16.08;;
43150;SDS011;28755;51.478;5.702;2023-03-03T10:13:13;35.03;;;16.23;;
43150;SDS011;28755;51.478;5.702;2023-03-03T10:15:57;26.95;;;15.60;;
43150;SDS011;28755;51.478;5.702;2023-03-03T10:18:46;26.67;;;15.32;;
43150;SDS011;28755;51.478;5.702;2023-03-03T10:21:33;27.45;;;15.05;;
43150;SDS011;28755;51.478;5.702;2023-03-03T10:26:59;25.95;;;14.45;;
43150;SDS011;28755;51.478;5.702;2023-03-03T10:29:42;26.20;;;14.77;;
43150;SDS011;28755;51.478;5.702;2023-03-03T10:38:09;25.55;;;14.13;;
43150;SDS011;28755;51.478;5.702;2023-03-03T10:40:55;23.50;;;13.38;;
43150;SDS011;28755;51.478;5.702;2023-03-03T10:46:24;22.95;;;12.75;;
43150;SDS011;28755;51.478;5.702;2023-03-03T10:48:56;22.17;;;13.18;;
43150;SDS011;28755;51.478;5.702;2023-03-03T10:57:06;21.42;;;13.43;;
43150;SDS011;28755;51.478;5.702;2023-03-03T10:59:51;20.88;;;12.40;;
43150;SDS011;28755;51.478;5.702;2023-03-03T11:05:39;21.85;;;13.02;;
43150;SDS011;28755;51.478;5.702;2023-03-03T11:19:09;20.15;;;13.35;;
43150;SDS011;28755;51.478;5.702;2023-03-03T11:22:07;19.70;;;12.30;;
43150;SDS011;28755;51.478;5.702;2023-03-03T11:27:31;17.58;;;11.85;;
43150;SDS011;28755;51.478;5.702;2023-03-03T11:30:30;16.23;;;11.32;;
43150;SDS011;28755;51.478;5.702;2023-03-03T11:44:23;15.25;;;11.65;;
43150;SDS011;28755;51.478;5.702;2023-03-03T11:47:21;14.25;;;11.60;;
43150;SDS011;28755;51.478;5.702;2023-03-03T11:49:55;15.90;;;11.80;;
43150;SDS011;28755;51.478;5.702;2023-03-03T11:52:50;17.48;;;11.73;;
43150;SDS011;28755;51.478;5.702;2023-03-03T11:55:32;16.15;;;12.38;;
43150;SDS011;28755;51.478;5.702;2023-03-03T11:58:19;18.40;;;12.82;;
43150;SDS011;28755;51.478;5.702;2023-03-03T12:03:56;16.77;;;11.60;;
43150;SDS011;28755;51.478;5.702;2023-03-03T12:06:31;16.23;;;11.65;;
43150;SDS011;28755;51.478;5.702;2023-03-03T12:09:22;18.98;;;11.32;;
43150;SDS011;28755;51.478;5.702;2023-03-03T12:12:20;14.95;;;11.48;;
43150;SDS011;28755;51.478;5.702;2023-03-03T12:22:53;16.60;;;11.80;;
43150;SDS011;28755;51.478;5.702;2023-03-03T12:25:34;18.40;;;11.88;;
43150;SDS011;28755;51.478;5.702;2023-03-03T12:33:56;17.25;;;11.43;;
43150;SDS011;28755;51.478;5.702;2023-03-03T12:41:52;18.00;;;12.77;;
43150;SDS011;28755;51.478;5.702;2023-03-03T12:50:17;14.45;;;11.23;;
43150;SDS011;28755;51.478;5.702;2023-03-03T12:52:51;15.35;;;10.82;;
43150;SDS011;28755;51.478;5.702;2023-03-03T12:55:26;16.40;;;11.45;;
43150;SDS011;28755;51.478;5.702;2023-03-03T13:00:51;17.17;;;11.30;;
43150;SDS011;28755;51.478;5.702;2023-03-03T13:03:34;17.15;;;11.10;;
43150;SDS011;28755;51.478;5.702;2023-03-03T13:06:10;16.55;;;11.88;;
43150;SDS011;28755;51.478;5.702;2023-03-03T13:14:46;15.65;;;11.57;;
43150;SDS011;28755;51.478;5.702;2023-03-03T13:17:37;14.25;;;11.15;;
43150;SDS011;28755;51.478;5.702;2023-03-03T13:23:21;15.95;;;11.00;;
43150;SDS011;28755;51.478;5.702;2023-03-03T13:26:26;19.15;;;11.75;;
43150;SDS011;28755;51.478;5.702;2023-03-03T13:29:19;17.77;;;11.93;;
43150;SDS011;28755;51.478;5.702;2023-03-03T13:32:13;16.13;;;11.40;;
43150;SDS011;28755;51.478;5.702;2023-03-03T13:37:34;16.10;;;11.35;;
43150;SDS011;28755;51.478;5.702;2023-03-03T13:40:15;16.88;;;11.43;;
43150;SDS011;28755;51.478;5.702;2023-03-03T13:53:59;14.20;;;10.15;;
43150;SDS011;28755;51.478;5.702;2023-03-03T14:02:22;16.45;;;9.32;;
43150;SDS011;28755;51.478;5.702;2023-03-03T14:05:15;15.65;;;9.68;;
43150;SDS011;28755;51.478;5.702;2023-03-03T14:10:32;14.27;;;9.00;;
43150;SDS011;28755;51.478;5.702;2023-03-03T14:13:18;14.27;;;9.88;;
43150;SDS011;28755;51.478;5.702;2023-03-03T14:15:55;14.35;;;10.18;;
43150;SDS011;28755;51.478;5.702;2023-03-03T14:21:34;14.77;;;9.95;;
43150;SDS011;28755;51.478;5.702;2023-03-03T14:24:05;13.88;;;8.95;;
43150;SDS011;28755;51.478;5.702;2023-03-03T14:26:48;15.50;;;10.32;;
43150;SDS011;28755;51.478;5.702;2023-03-03T14:29:19;14.02;;;9.10;;
43150;SDS011;28755;51.478;5.702;2023-03-03T14:31:45;12.75;;;8.43;;
43150;SDS011;28755;51.478;5.702;2023-03-03T14:37:20;12.18;;;7.40;;
43150;SDS011;28755;51.478;5.702;2023-03-03T14:39:59;12.23;;;7.25;;
43150;SDS011;28755;51.478;5.702;2023-03-03T14:47:57;14.30;;;7.47;;
43150;SDS011;28755;51.478;5.702;2023-03-03T14:50:29;11.13;;;7.30;;
43150;SDS011;28755;51.478;5.702;2023-03-03T14:55:50;10.88;;;7.00;;
43150;SDS011;28755;51.478;5.702;2023-03-03T14:58:23;12.13;;;7.28;;
43150;SDS011;28755;51.478;5.702;2023-03-03T15:03:57;10.63;;;7.10;;
43150;SDS011;28755;51.478;5.702;2023-03-03T15:06:30;11.23;;;7.90;;
43150;SDS011;28755;51.478;5.702;2023-03-03T15:11:57;14.85;;;8.07;;
43150;SDS011;28755;51.478;5.702;2023-03-03T15:14:28;11.75;;;7.40;;
43150;SDS011;28755;51.478;5.702;2023-03-03T15:17:11;12.30;;;7.65;;
43150;SDS011;28755;51.478;5.702;2023-03-03T15:19:49;11.45;;;7.85;;
43150;SDS011;28755;51.478;5.702;2023-03-03T15:22:36;14.50;;;8.25;;
43150;SDS011;28755;51.478;5.702;2023-03-03T15:25:27;12.63;;;7.68;;
43150;SDS011;28755;51.478;5.702;2023-03-03T15:28:26;11.90;;;6.82;;
43150;SDS011;28755;51.478;5.702;2023-03-03T15:31:01;10.68;;;6.85;;
43150;SDS011;28755;51.478;5.702;2023-03-03T15:36:33;9.77;;;6.53;;
43150;SDS011;28755;51.478;5.702;2023-03-03T15:39:15;11.07;;;6.38;;
43150;SDS011;28755;51.478;5.702;2023-03-03T15:42:04;12.02;;;6.63;;
43150;SDS011;28755;51.478;5.702;2023-03-03T15:50:51;9.05;;;5.95;;
43150;SDS011;28755;51.478;5.702;2023-03-03T16:09:12;8.95;;;6.13;;
43150;SDS011;28755;51.478;5.702;2023-03-03T16:11:54;11.63;;;6.25;;
43150;SDS011;28755;51.478;5.702;2023-03-03T16:20:28;8.95;;;5.70;;
43150;SDS011;28755;51.478;5.702;2023-03-03T16:23:21;9.30;;;5.20;;
43150;SDS011;28755;51.478;5.702;2023-03-03T16:26:02;8.10;;;5.05;;
43150;SDS011;28755;51.478;5.702;2023-03-03T16:31:39;9.30;;;5.43;;
43150;SDS011;28755;51.478;5.702;2023-03-03T16:37:12;8.27;;;4.90;;
43150;SDS011;28755;51.478;5.702;2023-03-03T16:39:58;7.65;;;4.82;;
43150;SDS011;28755;51.478;5.702;2023-03-03T16:42:42;8.38;;;5.35;;
43150;SDS011;28755;51.478;5.702;2023-03-03T16:45:26;8.27;;;5.22;;
43150;SDS011;28755;51.478;5.702;2023-03-03T16:59:20;9.35;;;5.43;;
43150;SDS011;28755;51.478;5.702;2023-03-03T17:12:54;22.60;;;10.75;;
43150;SDS011;28755;51.478;5.702;2023-03-03T17:15:28;29.60;;;12.82;;
43150;SDS011;28755;51.478;5.702;2023-03-03T17:18:36;13.20;;;6.18;;
43150;SDS011;28755;51.478;5.702;2023-03-03T17:21:15;24.00;;;12.05;;
43150;SDS011;28755;51.478;5.702;2023-03-03T17:26:44;17.33;;;7.82;;
43150;SDS011;28755;51.478;5.702;2023-03-03T17:29:45;13.98;;;5.85;;
43150;SDS011;28755;51.478;5.702;2023-03-03T17:37:51;10.07;;;5.07;;
43150;SDS011;28755;51.478;5.702;2023-03-03T17:43:37;6.72;;;2.97;;
43150;SDS011;28755;51.478;5.702;2023-03-03T17:46:13;6.78;;;3.67;;
43150;SDS011;28755;51.478;5.702;2023-03-03T17:51:31;5.95;;;2.65;;
43150;SDS011;28755;51.478;5.702;2023-03-03T17:54:12;5.90;;;1.92;;
43150;SDS011;28755;51.478;5.702;2023-03-03T17:59:41;3.58;;;1.95;;
43150;SDS011;28755;51.478;5.702;2023-03-03T18:02:40;4.32;;;2.20;;
43150;SDS011;28755;51.478;5.702;2023-03-03T18:11:17;16.48;;;2.33;;
43150;SDS011;28755;51.478;5.702;2023-03-03T18:16:47;4.07;;;1.95;;
43150;SDS011;28755;51.478;5.702;2023-03-03T18:19:49;5.03;;;1.90;;
43150;SDS011;28755;51.478;5.702;2023-03-03T18:22:46;3.58;;;1.80;;
43150;SDS011;28755;51.478;5.702;2023-03-03T18:25:17;5.97;;;1.80;;
43150;SDS011;28755;51.478;5.702;2023-03-03T18:27:47;6.50;;;2.38;;
43150;SDS011;28755;51.478;5.702;2023-03-03T18:33:31;9.43;;;1.88;;
43150;SDS011;28755;51.478;5.702;2023-03-03T18:38:52;3.08;;;1.83;;
43150;SDS011;28755;51.478;5.702;2023-03-03T18:41:22;7.25;;;2.35;;
43150;SDS011;28755;51.478;5.702;2023-03-03T18:43:57;6.85;;;2.17;;
43150;SDS011;28755;51.478;5.702;2023-03-03T18:54:06;8.75;;;2.53;;
43150;SDS011;28755;51.478;5.702;2023-03-03T19:04:46;4.88;;;2.45;;
43150;SDS011;28755;51.478;5.702;2023-03-03T19:10:05;12.07;;;3.33;;
43150;SDS011;28755;51.478;5.702;2023-03-03T19:20:39;11.85;;;6.38;;
43150;SDS011;28755;51.478;5.702;2023-03-03T19:23:11;12.55;;;4.60;;
43150;SDS011;28755;51.478;5.702;2023-03-03T19:25:43;11.88;;;4.35;;
43150;SDS011;28755;51.478;5.702;2023-03-03T19:39:19;12.57;;;4.82;;
43150;SDS011;28755;51.478;5.702;2023-03-03T19:41:58;9.82;;;3.60;;
43150;SDS011;28755;51.478;5.702;2023-03-03T19:44:39;10.43;;;5.43;;
43150;SDS011;28755;51.478;5.702;2023-03-03T19:50:23;12.10;;;6.45;;
43150;SDS011;28755;51.478;5.702;2023-03-03T19:53:13;10.93;;;4.30;;
43150;SDS011;28755;51.478;5.702;2023-03-03T19:58:42;9.25;;;2.63;;
43150;SDS011;28755;51.478;5.702;2023-03-03T20:04:46;5.85;;;2.45;;
43150;SDS011;28755;51.478;5.702;2023-03-03T20:13:37;6.60;;;2.13;;
43150;SDS011;28755;51.478;5.702;2023-03-03T20:22:01;30.27;;;6.63;;
43150;SDS011;28755;51.478;5.702;2023-03-03T20:27:46;22.58;;;9.73;;
43150;SDS011;28755;51.478;5.702;2023-03-03T20:35:54;8.13;;;3.08;;